Time;durP1;ratioP1;P1;durP2;ratioP2;P2;SDS_P1;SDS_P2;PMS_P1;PMS_P2;Temp;Humidity;BMP_temperature;BMP_pressure;BME280_temperature;BME280_humidity;BME280_pressure;Samples;Min_cycle;Max_cycle;Signal;HPM_P1;HPM_P2
2020/12/29 00:01:17;;;;;;;2.95;1.00;;;1.50;99.90;;;;;;5040274;28;20041;-70
2020/12/29 00:03:43;;;;;;;2.55;1.10;;;1.50;99.90;;;;;;5045871;28;20459;-70
2020/12/29 00:06:10;;;;;;;2.45;1.23;;;1.50;99.90;;;;;;5042397;28;20533;-70
2020/12/29 00:08:36;;;;;;;2.92;1.50;;;1.60;99.90;;;;;;5047817;28;20110;-70
2020/12/29 00:11:02;;;;;;;3.65;1.15;;;1.60;99.90;;;;;;5063033;28;20498;-70
2020/12/29 00:13:29;;;;;;;4.03;1.48;;;1.60;99.90;;;;;;5048458;28;20131;-71
2020/12/29 00:15:55;;;;;;;5.78;1.42;;;1.60;99.90;;;;;;5050788;28;20048;-70
2020/12/29 00:18:21;;;;;;;4.22;1.30;;;1.50;99.90;;;;;;5051551;28;20474;-70
2020/12/29 00:20:48;;;;;;;3.47;1.52;;;1.60;99.90;;;;;;5067035;28;20088;-70
2020/12/29 00:23:14;;;;;;;3.03;1.38;;;1.60;99.90;;;;;;5051856;28;20145;-69
2020/12/29 00:25:40;;;;;;;2.75;1.30;;;1.50;99.90;;;;;;5051297;28;20080;-69
2020/12/29 00:28:07;;;;;;;2.80;1.38;;;1.60;99.90;;;;;;5051640;28;20045;-69
2020/12/29 00:30:33;;;;;;;3.13;1.25;;;1.60;99.90;;;;;;5051774;28;20072;-69
2020/12/29 00:32:59;;;;;;;4.63;1.23;;;1.60;99.90;;;;;;5051318;28;20080;-69
2020/12/29 00:35:25;;;;;;;3.00;1.40;;;1.60;99.90;;;;;;5050800;28;20080;-69
2020/12/29 00:37:52;;;;;;;3.72;1.60;;;1.60;99.90;;;;;;5051017;28;20040;-69
2020/12/29 00:40:18;;;;;;;4.72;1.70;;;1.60;99.90;;;;;;5033671;28;20056;-69
2020/12/29 00:42:44;;;;;;;4.38;1.80;;;1.60;99.90;;;;;;5051562;28;20053;-69
2020/12/29 00:45:11;;;;;;;2.63;1.38;;;1.70;99.90;;;;;;5051153;28;20056;-69
2020/12/29 00:47:38;;;;;;;5.43;1.88;;;1.60;99.90;;;;;;5048966;28;20506;-70
2020/12/29 00:50:04;;;;;;;3.88;1.50;;;1.50;99.90;;;;;;5051719;28;20107;-69
2020/12/29 00:52:30;;;;;;;3.13;1.55;;;1.50;99.90;;;;;;5051373;28;20470;-69
2020/12/29 00:54:56;;;;;;;4.78;1.83;;;1.50;99.90;;;;;;5050510;28;20041;-70
2020/12/29 00:57:23;;;;;;;5.18;1.70;;;1.50;99.90;;;;;;5050794;28;20095;-69
2020/12/29 00:59:49;;;;;;;4.07;2.30;;;1.50;99.90;;;;;;5051147;28;20525;-69
2020/12/29 01:02:15;;;;;;;4.05;1.75;;;1.50;99.90;;;;;;5050707;28;20084;-70
2020/12/29 01:04:42;;;;;;;6.70;1.80;;;1.50;99.90;;;;;;5051561;28;20044;-70
2020/12/29 01:07:08;;;;;;;8.20;2.40;;;1.50;99.90;;;;;;5050408;28;21631;-70
2020/12/29 01:09:34;;;;;;;3.92;1.63;;;1.50;99.90;;;;;;5050854;28;20284;-70
2020/12/29 01:12:01;;;;;;;6.95;2.45;;;1.40;99.90;;;;;;5051133;28;20166;-70
2020/12/29 01:14:27;;;;;;;5.25;2.20;;;1.50;99.90;;;;;;5051136;28;20095;-70
2020/12/29 01:16:53;;;;;;;5.28;2.30;;;1.50;99.90;;;;;;5050479;28;20045;-70
2020/12/29 01:19:20;;;;;;;8.48;2.90;;;1.50;99.90;;;;;;5050307;28;20118;-70
2020/12/29 01:21:50;;;;;;;5.82;2.42;;;1.50;99.90;;;;;;5050790;28;20114;-70
2020/12/29 01:24:16;;;;;;;4.65;1.90;;;1.50;99.90;;;;;;5050468;28;20132;-70
2020/12/29 01:26:43;;;;;;;6.28;2.85;;;1.50;99.90;;;;;;5048536;28;20750;-69
2020/12/29 01:29:09;;;;;;;8.35;2.22;;;1.50;99.90;;;;;;5050190;28;20049;-69
2020/12/29 01:31:36;;;;;;;3.30;1.63;;;1.50;99.90;;;;;;5050759;28;20123;-69
2020/12/29 01:34:02;;;;;;;4.57;2.03;;;1.60;99.90;;;;;;5057459;28;20068;-69
2020/12/29 01:36:29;;;;;;;5.25;2.20;;;1.60;99.90;;;;;;5049067;28;20049;-68
2020/12/29 01:38:55;;;;;;;5.18;2.13;;;1.60;99.90;;;;;;5048360;28;20209;-69
2020/12/29 01:41:23;;;;;;;4.00;1.90;;;1.60;99.90;;;;;;5049589;28;20052;-68
2020/12/29 01:43:50;;;;;;;3.97;1.50;;;1.60;99.90;;;;;;5050086;28;20057;-68
2020/12/29 01:46:17;;;;;;;8.32;1.92;;;1.60;99.90;;;;;;5031681;28;20128;-69
2020/12/29 01:48:43;;;;;;;2.83;1.40;;;1.70;99.90;;;;;;5050149;28;20128;-68
2020/12/29 01:51:11;;;;;;;4.28;1.60;;;1.70;99.90;;;;;;5049841;28;20052;-68
2020/12/29 01:53:39;;;;;;;4.35;1.25;;;1.70;99.90;;;;;;5050623;28;20138;-68
2020/12/29 01:56:09;;;;;;;2.65;1.23;;;1.80;99.90;;;;;;5050282;28;20053;-68
2020/12/29 01:58:41;;;;;;;3.58;1.60;;;1.80;99.90;;;;;;5049440;28;20564;-68
2020/12/29 02:01:08;;;;;;;3.83;1.40;;;1.80;99.90;;;;;;5049534;28;20060;-69
2020/12/29 02:03:35;;;;;;;4.05;1.63;;;1.90;99.90;;;;;;5047240;28;20071;-69
2020/12/29 02:06:02;;;;;;;4.90;1.92;;;1.80;99.90;;;;;;5045406;28;20331;-69
2020/12/29 02:08:29;;;;;;;2.33;1.20;;;1.80;99.90;;;;;;5048285;28;20049;-69
2020/12/29 02:10:56;;;;;;;2.58;1.00;;;1.80;99.90;;;;;;5047422;28;20525;-69
2020/12/29 02:13:22;;;;;;;2.15;1.00;;;1.80;99.90;;;;;;5048866;28;20083;-69
2020/12/29 02:15:48;;;;;;;3.90;1.30;;;1.80;99.90;;;;;;5048455;28;20095;-69
2020/12/29 02:18:15;;;;;;;3.17;1.00;;;1.80;99.90;;;;;;5047163;28;20493;-69
2020/12/29 02:20:42;;;;;;;2.83;1.00;;;1.80;99.90;;;;;;5047329;28;20132;-69
2020/12/29 02:23:10;;;;;;;2.50;0.80;;;1.80;99.90;;;;;;5040553;28;20103;-69
2020/12/29 02:25:37;;;;;;;3.42;1.17;;;1.80;99.90;;;;;;5047957;28;20273;-69
2020/12/29 02:28:05;;;;;;;6.65;1.00;;;1.80;99.90;;;;;;5048086;28;20081;-69
2020/12/29 02:30:32;;;;;;;4.00;0.70;;;1.80;99.90;;;;;;5049062;28;20498;-69
2020/12/29 02:32:58;;;;;;;1.80;0.70;;;1.90;99.90;;;;;;5048766;28;20049;-69
2020/12/29 02:35:24;;;;;;;2.70;0.88;;;2.00;99.90;;;;;;5048549;28;20079;-70
2020/12/29 02:37:51;;;;;;;2.65;1.05;;;1.90;99.90;;;;;;5047406;28;20072;-68
2020/12/29 02:40:17;;;;;;;1.48;0.75;;;1.90;99.90;;;;;;5047689;28;20065;-69
2020/12/29 02:42:43;;;;;;;4.50;0.90;;;1.80;99.90;;;;;;5038867;28;20052;-69
2020/12/29 02:45:10;;;;;;;1.13;0.60;;;1.80;99.90;;;;;;5047307;28;20132;-68
2020/12/29 02:47:37;;;;;;;2.85;0.80;;;1.70;99.90;;;;;;5046564;28;20094;-69
2020/12/29 02:50:07;;;;;;;0.80;0.50;;;1.70;99.90;;;;;;5048908;28;20063;-68
2020/12/29 02:52:34;;;;;;;1.65;0.70;;;1.60;99.90;;;;;;5048294;28;20337;-68
2020/12/29 02:55:01;;;;;;;1.88;0.65;;;1.60;99.90;;;;;;5048099;28;20256;-68
2020/12/29 02:57:27;;;;;;;3.47;0.63;;;1.50;99.90;;;;;;5048918;28;20144;-68
2020/12/29 02:59:53;;;;;;;1.40;0.50;;;1.50;99.90;;;;;;5047592;28;20076;-68
2020/12/29 03:02:19;;;;;;;2.40;0.80;;;1.40;99.90;;;;;;5046147;28;20494;-68
2020/12/29 03:04:46;;;;;;;1.42;0.50;;;1.40;99.90;;;;;;5049023;28;20095;-70
2020/12/29 03:07:13;;;;;;;1.83;0.52;;;1.30;99.90;;;;;;5048325;28;20821;-69
2020/12/29 03:09:40;;;;;;;0.90;0.50;;;1.40;99.90;;;;;;5048741;28;20041;-70
2020/12/29 03:12:07;;;;;;;1.85;0.50;;;1.30;99.90;;;;;;5048239;28;20370;-68
2020/12/29 03:14:34;;;;;;;1.20;0.40;;;1.40;99.90;;;;;;5048626;28;20370;-70
2020/12/29 03:17:01;;;;;;;0.82;0.40;;;1.40;99.90;;;;;;5046730;28;20051;-71
2020/12/29 03:19:27;;;;;;;0.75;0.40;;;1.40;99.90;;;;;;5047078;28;20049;-70
2020/12/29 03:21:53;;;;;;;0.22;0.20;;;1.40;99.90;;;;;;5048161;28;20057;-70
2020/12/29 03:24:20;;;;;;;0.20;0.20;;;1.30;99.90;;;;;;5047690;28;20263;-70
2020/12/29 03:26:46;;;;;;;1.92;0.30;;;1.30;99.90;;;;;;5048101;28;20045;-70
2020/12/29 03:29:13;;;;;;;0.95;0.50;;;1.30;99.90;;;;;;5059688;28;20138;-70
2020/12/29 03:31:43;;;;;;;0.40;0.30;;;1.30;99.90;;;;;;5062908;28;20041;-69
2020/12/29 03:34:16;;;;;;;0.35;0.20;;;1.40;99.90;;;;;;5048022;28;20064;-69
2020/12/29 03:36:43;;;;;;;0.40;0.32;;;1.40;99.90;;;;;;5047072;28;20120;-69
2020/12/29 03:39:09;;;;;;;0.65;0.20;;;1.40;99.90;;;;;;5029082;28;20136;-69
2020/12/29 03:41:35;;;;;;;1.58;0.30;;;1.40;99.90;;;;;;5041823;28;20391;-69
2020/12/29 03:44:02;;;;;;;1.65;0.40;;;1.30;99.90;;;;;;5045016;28;20045;-70
2020/12/29 03:46:28;;;;;;;0.52;0.30;;;1.40;99.90;;;;;;5048078;28;20117;-69
2020/12/29 03:48:54;;;;;;;0.60;0.30;;;1.30;99.90;;;;;;5047094;28;20114;-69
2020/12/29 03:51:21;;;;;;;0.93;0.28;;;1.30;99.90;;;;;;5051449;28;20040;-69
2020/12/29 03:53:47;;;;;;;0.40;0.22;;;1.30;99.90;;;;;;5052635;28;20124;-69
2020/12/29 03:56:14;;;;;;;0.43;0.30;;;1.20;99.90;;;;;;5051043;28;20044;-69
2020/12/29 03:58:42;;;;;;;2.08;0.50;;;1.30;99.90;;;;;;5050879;28;20059;-70
2020/12/29 04:01:08;;;;;;;0.40;0.30;;;1.30;99.90;;;;;;5051290;28;20118;-69
2020/12/29 04:03:35;;;;;;;0.95;0.20;;;1.30;99.90;;;;;;5051603;28;20087;-69
2020/12/29 04:06:01;;;;;;;0.40;0.30;;;1.20;99.90;;;;;;5051096;28;20127;-69
2020/12/29 04:08:27;;;;;;;1.02;0.40;;;1.20;99.90;;;;;;5050119;28;20148;-69
2020/12/29 04:10:54;;;;;;;1.60;0.60;;;1.20;99.90;;;;;;5048819;28;20578;-70
2020/12/29 04:13:20;;;;;;;1.13;0.65;;;1.30;99.90;;;;;;5050788;28;20124;-69
2020/12/29 04:15:46;;;;;;;0.75;0.40;;;1.30;99.90;;;;;;5052829;28;20063;-69
2020/12/29 04:18:13;;;;;;;1.50;0.80;;;1.30;99.90;;;;;;5065555;28;20483;-69
2020/12/29 04:20:39;;;;;;;1.40;0.50;;;1.30;99.90;;;;;;5050999;28;20099;-69
2020/12/29 04:23:05;;;;;;;1.13;0.70;;;1.20;99.90;;;;;;5050970;28;20122;-70
2020/12/29 04:25:32;;;;;;;1.35;0.70;;;1.20;99.90;;;;;;5035488;28;20156;-69
2020/12/29 04:27:58;;;;;;;1.02;0.60;;;1.20;99.90;;;;;;5058050;28;20147;-70
2020/12/29 04:30:24;;;;;;;0.93;0.60;;;1.20;99.90;;;;;;5050957;28;20128;-69
2020/12/29 04:32:51;;;;;;;3.15;0.80;;;1.20;99.90;;;;;;5050236;28;20048;-69
2020/12/29 04:35:17;;;;;;;1.02;0.70;;;1.20;99.90;;;;;;5049879;28;20075;-69
2020/12/29 04:37:44;;;;;;;1.77;1.00;;;1.20;99.90;;;;;;5050983;28;20124;-69
2020/12/29 04:40:10;;;;;;;3.03;0.73;;;1.20;99.90;;;;;;5050056;28;20406;-69
2020/12/29 04:42:37;;;;;;;2.38;0.90;;;1.20;99.90;;;;;;5050698;28;20136;-69
2020/12/29 04:45:05;;;;;;;1.48;1.00;;;1.20;99.90;;;;;;5051571;28;20055;-69
2020/12/29 04:47:32;;;;;;;1.80;0.98;;;1.20;99.90;;;;;;5050287;28;20056;-70
2020/12/29 04:49:59;;;;;;;1.63;1.15;;;1.20;99.90;;;;;;5050569;28;20080;-70
2020/12/29 04:52:30;;;;;;;2.22;1.40;;;1.20;99.90;;;;;;5049248;28;20051;-70
2020/12/29 04:54:57;;;;;;;2.38;1.23;;;1.30;99.90;;;;;;5049757;28;20371;-69
2020/12/29 04:57:24;;;;;;;4.13;1.70;;;1.30;99.90;;;;;;5050770;28;20076;-69
2020/12/29 04:59:55;;;;;;;1.80;1.40;;;1.30;99.90;;;;;;5032021;28;20136;-70
2020/12/29 05:02:21;;;;;;;2.65;1.13;;;1.40;99.90;;;;;;5047573;28;20144;-70
2020/12/29 05:04:48;;;;;;;1.73;1.13;;;1.40;99.90;;;;;;5049987;28;20132;-70
2020/12/29 05:07:14;;;;;;;3.42;1.58;;;1.40;99.90;;;;;;5031711;28;20135;-69
2020/12/29 05:09:43;;;;;;;2.53;0.73;;;1.40;99.90;;;;;;5051417;28;20136;-70
2020/12/29 05:12:09;;;;;;;1.13;0.82;;;1.40;99.90;;;;;;5049199;28;20045;-70
2020/12/29 05:14:37;;;;;;;2.10;1.15;;;1.40;99.90;;;;;;5051333;28;20051;-69
2020/12/29 05:17:03;;;;;;;2.30;1.05;;;1.40;99.90;;;;;;5048071;28;20091;-69
2020/12/29 05:19:33;;;;;;;2.60;1.30;;;1.30;99.90;;;;;;5048990;28;20076;-70
2020/12/29 05:21:59;;;;;;;2.95;1.20;;;1.40;99.90;;;;;;5050614;28;20569;-73
2020/12/29 05:24:25;;;;;;;1.10;0.77;;;1.40;99.90;;;;;;5050720;28;20373;-73
2020/12/29 05:26:58;;;;;;;0.90;0.65;;;1.30;99.90;;;;;;5064659;28;20186;-73
2020/12/29 05:29:25;;;;;;;1.40;1.02;;;1.30;99.90;;;;;;5050011;28;20080;-73
2020/12/29 05:31:52;;;;;;;1.40;0.60;;;1.30;99.90;;;;;;5049695;28;20547;-73
2020/12/29 05:34:23;;;;;;;1.70;1.10;;;1.30;99.90;;;;;;5049824;28;20128;-73
2020/12/29 05:36:50;;;;;;;2.17;1.10;;;1.40;99.90;;;;;;5049178;28;20068;-74
2020/12/29 05:39:20;;;;;;;1.73;0.90;;;1.40;99.90;;;;;;5049669;28;20061;-73
2020/12/29 05:41:51;;;;;;;1.52;1.13;;;1.30;99.90;;;;;;5049942;28;20132;-73
2020/12/29 05:44:29;;;;;;;2.17;1.20;;;1.40;99.90;;;;;;5048036;28;20180;-74
2020/12/29 05:47:03;;;;;;;3.03;1.77;;;1.40;99.90;;;;;;5049512;28;20118;-72
2020/12/29 05:49:33;;;;;;;1.90;0.88;;;1.30;99.90;;;;;;5049266;28;20055;-74
2020/12/29 05:52:00;;;;;;;2.95;1.80;;;1.30;99.90;;;;;;5030109;28;20124;-74
2020/12/29 05:54:27;;;;;;;2.42;1.58;;;1.30;99.90;;;;;;5048345;28;20072;-73
2020/12/29 05:56:54;;;;;;;2.85;1.70;;;1.30;99.90;;;;;;5037965;28;20037;-73
2020/12/29 05:59:21;;;;;;;3.40;1.83;;;1.40;99.90;;;;;;5050267;28;20075;-74
2020/12/29 06:01:52;;;;;;;4.10;2.78;;;1.30;99.90;;;;;;5025221;28;20196;-74
2020/12/29 06:04:20;;;;;;;3.20;1.88;;;1.40;99.90;;;;;;5037609;28;20076;-73
2020/12/29 06:06:50;;;;;;;5.25;2.03;;;1.40;99.90;;;;;;5047224;28;20129;-73
2020/12/29 06:09:19;;;;;;;2.80;1.95;;;1.40;99.90;;;;;;5049224;28;20049;-73
2020/12/29 06:11:49;;;;;;;3.20;1.88;;;1.40;99.90;;;;;;5048109;28;20073;-74
2020/12/29 06:14:26;;;;;;;3.22;1.92;;;1.50;99.90;;;;;;5049105;28;20045;-73
2020/12/29 06:16:54;;;;;;;2.75;1.45;;;1.50;99.90;;;;;;5048662;28;20044;-74
2020/12/29 06:19:28;;;;;;;2.15;1.30;;;1.40;99.90;;;;;;5047421;28;20132;-74
2020/12/29 06:22:03;;;;;;;2.70;1.73;;;1.50;99.90;;;;;;5044683;28;20137;-74
2020/12/29 06:24:31;;;;;;;3.78;1.60;;;1.50;99.90;;;;;;5047296;28;20402;-73
2020/12/29 06:27:00;;;;;;;2.60;1.50;;;1.50;99.90;;;;;;5049145;28;20080;-73
2020/12/29 06:29:50;;;;;;;2.33;1.42;;;1.50;99.90;;;;;;5047053;28;20135;-74
2020/12/29 06:32:21;;;;;;;2.92;1.65;;;1.50;99.90;;;;;;5048464;28;20439;-73
2020/12/29 06:34:49;;;;;;;5.38;1.65;;;1.60;99.90;;;;;;5052223;28;20087;-73
2020/12/29 06:37:26;;;;;;;3.85;2.10;;;1.50;99.90;;;;;;5047433;28;20309;-74
2020/12/29 06:39:59;;;;;;;4.95;2.60;;;1.50;99.90;;;;;;5048501;28;20072;-73
2020/12/29 06:42:26;;;;;;;6.70;4.05;;;1.50;99.90;;;;;;5048999;28;20109;-76
2020/12/29 06:44:53;;;;;;;3.58;2.83;;;1.60;99.90;;;;;;5048287;28;20144;-73
2020/12/29 06:47:22;;;;;;;3.13;2.22;;;1.60;99.90;;;;;;5048319;28;20136;-74
2020/12/29 06:49:49;;;;;;;2.97;2.22;;;1.60;99.90;;;;;;5047931;28;20053;-73
2020/12/29 06:52:23;;;;;;;5.00;2.70;;;1.60;99.90;;;;;;5045644;28;20131;-73
2020/12/29 06:54:57;;;;;;;2.95;1.83;;;1.70;99.90;;;;;;5027964;28;20080;-74
2020/12/29 06:57:35;;;;;;;4.35;3.22;;;1.70;99.90;;;;;;5030372;28;20156;-73
2020/12/29 07:00:10;;;;;;;5.97;3.28;;;1.60;99.90;;;;;;5047459;28;20087;-74
2020/12/29 07:02:38;;;;;;;5.88;4.00;;;1.60;99.90;;;;;;5047739;28;20080;-73
2020/12/29 07:05:21;;;;;;;4.88;3.60;;;1.70;99.90;;;;;;5047137;28;20095;-72
2020/12/29 07:07:51;;;;;;;5.15;3.63;;;1.70;99.90;;;;;;5046769;28;20128;-73
2020/12/29 07:10:19;;;;;;;3.67;2.47;;;1.70;99.90;;;;;;5046971;28;20049;-73
2020/12/29 07:12:47;;;;;;;4.20;2.92;;;1.60;99.90;;;;;;5047991;28;20068;-74
2020/12/29 07:15:15;;;;;;;4.57;3.20;;;1.60;99.90;;;;;;5047993;28;20072;-74
2020/12/29 07:17:55;;;;;;;5.13;2.90;;;1.60;99.90;;;;;;5048935;28;20080;-73
2020/12/29 07:20:23;;;;;;;3.13;1.80;;;1.60;99.90;;;;;;5046057;28;20570;-74
2020/12/29 07:23:06;;;;;;;2.58;1.92;;;1.60;99.90;;;;;;5048120;28;20095;-73
2020/12/29 07:25:35;;;;;;;3.00;1.58;;;1.60;99.90;;;;;;5050596;28;20467;-73
2020/12/29 07:28:06;;;;;;;3.83;2.42;;;1.70;99.90;;;;;;5051886;28;20103;-73
2020/12/29 07:30:34;;;;;;;2.17;1.37;;;1.70;99.90;;;;;;5053100;28;20132;-74
2020/12/29 07:33:06;;;;;;;3.90;2.67;;;1.70;99.90;;;;;;5051753;28;20307;-73
2020/12/29 07:35:35;;;;;;;2.40;1.33;;;1.70;99.90;;;;;;5051517;28;20045;-74
2020/12/29 07:38:10;;;;;;;5.10;2.85;;;1.60;99.90;;;;;;5049800;28;20076;-73
2020/12/29 07:40:36;;;;;;;4.20;2.47;;;1.70;99.90;;;;;;5051612;28;20105;-73
2020/12/29 07:43:04;;;;;;;4.25;2.33;;;1.70;99.90;;;;;;5052382;28;20588;-74
2020/12/29 07:45:32;;;;;;;5.22;3.47;;;1.60;99.90;;;;;;5052101;28;20061;-74
2020/12/29 07:48:00;;;;;;;4.40;3.38;;;1.80;99.90;;;;;;5052066;28;20076;-73
2020/12/29 07:50:27;;;;;;;2.78;1.80;;;1.80;99.90;;;;;;5050687;28;20548;-73
2020/12/29 07:53:10;;;;;;;4.28;2.95;;;1.80;99.90;;;;;;5050535;28;20041;-74
2020/12/29 07:55:42;;;;;;;3.05;2.40;;;1.80;99.90;;;;;;5050696;28;20089;-73
2020/12/29 07:58:09;;;;;;;3.95;2.50;;;1.80;99.90;;;;;;5050864;28;20135;-73
2020/12/29 08:00:37;;;;;;;2.65;1.77;;;1.80;99.90;;;;;;5051062;28;20049;-73
2020/12/29 08:03:04;;;;;;;3.15;1.60;;;1.70;99.90;;;;;;5051904;28;20080;-74
2020/12/29 08:05:32;;;;;;;3.53;1.70;;;1.70;99.90;;;;;;5049423;28;20152;-74
2020/12/29 08:08:05;;;;;;;3.65;1.95;;;1.70;99.90;;;;;;5050356;28;20084;-73
2020/12/29 08:10:37;;;;;;;3.42;1.65;;;1.70;99.90;;;;;;5030251;28;20125;-73
2020/12/29 08:13:17;;;;;;;4.10;1.73;;;1.70;99.90;;;;;;5047205;28;20440;-73
2020/12/29 08:15:44;;;;;;;1.63;0.80;;;1.70;99.90;;;;;;5034068;28;20132;-73
2020/12/29 08:18:11;;;;;;;2.67;1.20;;;1.70;99.90;;;;;;5050543;28;20477;-74
2020/12/29 08:20:45;;;;;;;2.58;1.45;;;1.60;99.90;;;;;;5060148;28;20068;-73
2020/12/29 08:23:12;;;;;;;1.50;0.90;;;1.60;99.90;;;;;;5043624;28;20135;-73
2020/12/29 08:25:39;;;;;;;2.03;1.38;;;1.60;99.90;;;;;;5055532;28;20075;-73
2020/12/29 08:28:07;;;;;;;2.72;0.90;;;1.70;99.90;;;;;;5050830;28;20092;-74
2020/12/29 08:30:35;;;;;;;3.38;1.27;;;1.70;99.90;;;;;;5050955;28;20124;-73
2020/12/29 08:33:05;;;;;;;2.58;1.30;;;1.70;99.90;;;;;;5050794;28;20131;-74
2020/12/29 08:35:33;;;;;;;5.43;1.60;;;1.80;99.90;;;;;;5048943;28;20056;-74
2020/12/29 08:38:17;;;;;;;2.60;1.63;;;1.80;99.90;;;;;;5049843;28;20148;-74
2020/12/29 08:41:04;;;;;;;3.15;1.70;;;1.80;99.90;;;;;;5050467;28;20088;-74
2020/12/29 08:43:34;;;;;;;3.78;2.13;;;1.80;99.90;;;;;;5031378;28;20099;-74
2020/12/29 08:46:05;;;;;;;5.05;2.50;;;1.80;99.90;;;;;;5049972;28;20048;-74
2020/12/29 08:48:32;;;;;;;5.60;3.13;;;1.70;99.90;;;;;;5050901;28;20563;-74
2020/12/29 08:50:59;;;;;;;9.98;5.15;;;1.80;99.90;;;;;;5049583;28;20076;-74
2020/12/29 08:53:27;;;;;;;4.57;2.67;;;1.90;99.90;;;;;;5049471;28;20068;-73
2020/12/29 08:55:54;;;;;;;4.90;2.60;;;1.90;99.90;;;;;;5050295;28;20044;-74
2020/12/29 08:58:27;;;;;;;4.47;2.65;;;1.90;99.90;;;;;;5048969;28;20087;-74
2020/12/29 09:01:02;;;;;;;9.87;4.60;;;1.90;99.90;;;;;;5049218;28;20485;-74
2020/12/29 09:03:30;;;;;;;5.22;3.45;;;2.00;99.90;;;;;;5049520;28;20076;-74
2020/12/29 09:05:59;;;;;;;6.03;4.32;;;1.90;99.90;;;;;;5049318;28;20477;-74
2020/12/29 09:08:27;;;;;;;7.13;4.53;;;1.90;99.90;;;;;;5049291;28;20111;-73
2020/12/29 09:11:13;;;;;;;8.65;5.53;;;1.90;99.90;;;;;;5049872;28;20189;-73
2020/12/29 09:14:05;;;;;;;8.88;4.82;;;2.00;99.90;;;;;;5050034;28;20469;-74
2020/12/29 09:16:32;;;;;;;7.22;5.25;;;1.90;99.90;;;;;;5049329;28;20095;-74
2020/12/29 09:18:58;;;;;;;9.15;5.68;;;2.00;99.90;;;;;;5048896;28;20041;-73
2020/12/29 09:21:25;;;;;;;5.95;3.67;;;2.00;99.90;;;;;;5050518;28;20443;-73
2020/12/29 09:23:57;;;;;;;10.13;5.40;;;2.00;99.90;;;;;;5050305;28;20128;-74
2020/12/29 09:26:24;;;;;;;13.63;4.90;;;2.10;99.90;;;;;;5049532;28;20079;-73
2020/12/29 09:28:50;;;;;;;7.93;4.85;;;2.00;99.90;;;;;;5049297;28;20122;-73
2020/12/29 09:31:27;;;;;;;8.90;5.43;;;2.10;99.90;;;;;;5049968;28;20073;-73
2020/12/29 09:34:04;;;;;;;10.60;5.07;;;2.10;99.90;;;;;;5047992;28;20088;-73
2020/12/29 09:36:31;;;;;;;13.43;6.53;;;2.10;99.90;;;;;;5048530;28;20045;-73
2020/12/29 09:38:58;;;;;;;7.80;2.13;;;2.20;99.90;;;;;;5048012;28;20132;-73
2020/12/29 09:41:24;;;;;;;12.48;5.30;;;2.10;99.90;;;;;;5050395;28;20084;-74
2020/12/29 09:43:50;;;;;;;14.38;5.60;;;2.20;99.90;;;;;;5005704;28;20462;-73
2020/12/29 09:46:17;;;;;;;12.05;5.22;;;2.20;99.90;;;;;;5045746;28;20065;-73
2020/12/29 09:48:43;;;;;;;7.97;4.20;;;2.20;99.90;;;;;;5030480;28;20076;-73
2020/12/29 09:51:13;;;;;;;9.73;4.45;;;2.20;99.90;;;;;;5049541;28;20064;-73
2020/12/29 09:53:40;;;;;;;7.32;3.25;;;2.30;99.90;;;;;;5049337;28;20049;-73
2020/12/29 09:56:06;;;;;;;8.30;3.38;;;2.30;99.90;;;;;;5048176;28;20079;-73
2020/12/29 09:58:33;;;;;;;10.32;3.40;;;2.30;99.90;;;;;;5047525;28;20433;-74
2020/12/29 10:00:59;;;;;;;15.18;7.20;;;2.30;99.90;;;;;;5048609;28;20438;-72
2020/12/29 10:03:26;;;;;;;10.20;3.78;;;2.30;99.90;;;;;;5047827;28;20501;-72
2020/12/29 10:05:52;;;;;;;9.00;3.53;;;2.40;99.90;;;;;;5047071;28;20049;-71
2020/12/29 10:08:18;;;;;;;9.10;2.88;;;2.40;99.90;;;;;;5048353;28;20048;-73
2020/12/29 10:10:45;;;;;;;7.32;2.13;;;2.50;99.90;;;;;;5049980;28;20041;-73
2020/12/29 10:13:11;;;;;;;7.00;2.10;;;2.50;99.90;;;;;;5056340;28;20036;-74
2020/12/29 10:15:37;;;;;;;7.43;2.28;;;2.50;99.90;;;;;;5046840;28;20104;-74
2020/12/29 10:18:04;;;;;;;8.32;3.08;;;2.50;99.90;;;;;;5048428;28;20132;-74
2020/12/29 10:20:30;;;;;;;6.80;2.63;;;2.50;99.90;;;;;;5047478;28;20075;-74
2020/12/29 10:22:56;;;;;;;6.30;2.13;;;2.50;99.90;;;;;;5048560;28;20041;-73
2020/12/29 10:25:23;;;;;;;5.28;1.80;;;2.50;99.90;;;;;;5030434;28;20049;-73
2020/12/29 10:27:49;;;;;;;7.28;2.35;;;2.50;99.90;;;;;;5045972;28;20866;-72
2020/12/29 10:30:15;;;;;;;6.82;2.03;;;2.50;99.90;;;;;;5052289;28;20127;-72
2020/12/29 10:32:43;;;;;;;7.55;2.72;;;2.50;99.90;;;;;;5044637;28;20045;-73
2020/12/29 10:35:10;;;;;;;9.45;2.60;;;2.50;99.90;;;;;;5046053;28;20049;-72
2020/12/29 10:37:36;;;;;;;15.27;2.85;;;2.50;99.90;;;;;;5044996;28;20140;-72
2020/12/29 10:40:04;;;;;;;10.20;2.35;;;2.50;99.90;;;;;;5047332;28;20045;-72
2020/12/29 10:42:32;;;;;;;6.28;2.80;;;2.40;99.90;;;;;;5048332;28;20110;-73
2020/12/29 10:44:59;;;;;;;9.20;2.47;;;2.50;99.90;;;;;;5049085;28;20152;-72
2020/12/29 10:47:25;;;;;;;8.38;3.25;;;2.50;99.90;;;;;;5048799;28;20171;-73
2020/12/29 10:49:52;;;;;;;4.97;1.50;;;2.50;99.90;;;;;;5028551;28;20212;-73
2020/12/29 10:52:18;;;;;;;6.93;3.00;;;2.50;99.90;;;;;;5045682;28;20118;-73
2020/12/29 10:54:45;;;;;;;9.50;2.05;;;2.50;99.90;;;;;;5042618;28;20116;-73
2020/12/29 10:57:11;;;;;;;5.75;2.47;;;2.50;99.90;;;;;;5047710;28;20072;-73
2020/12/29 10:59:37;;;;;;;7.60;3.17;;;2.50;99.90;;;;;;5046399;28;20440;-73
2020/12/29 11:02:05;;;;;;;14.23;3.05;;;2.60;99.90;;;;;;5046375;28;20152;-73
2020/12/29 11:04:31;;;;;;;9.20;3.03;;;2.70;99.90;;;;;;5048837;28;20049;-73
2020/12/29 11:06:57;;;;;;;6.20;2.13;;;2.70;99.90;;;;;;5046781;28;20147;-71
2020/12/29 11:09:24;;;;;;;7.95;2.05;;;2.80;99.90;;;;;;5047444;28;20528;-72
2020/12/29 11:11:51;;;;;;;13.43;3.97;;;2.80;99.90;;;;;;5047401;28;20045;-73
2020/12/29 11:14:17;;;;;;;8.70;1.83;;;2.80;99.90;;;;;;5048157;28;20086;-72
2020/12/29 11:16:48;;;;;;;7.82;2.75;;;2.80;99.90;;;;;;5047302;28;20077;-72
2020/12/29 11:19:15;;;;;;;8.65;2.40;;;2.80;99.90;;;;;;5047836;28;20156;-72
2020/12/29 11:21:41;;;;;;;13.32;2.10;;;2.90;99.90;;;;;;5049536;28;20462;-72
2020/12/29 11:24:07;;;;;;;11.02;2.08;;;2.90;99.90;;;;;;5045692;28;20083;-73
2020/12/29 11:26:34;;;;;;;6.45;1.55;;;2.90;99.90;;;;;;5046118;28;20458;-73
2020/12/29 11:29:00;;;;;;;8.23;2.42;;;3.10;99.90;;;;;;5028566;28;20107;-73
2020/12/29 11:31:27;;;;;;;8.02;2.22;;;3.10;99.90;;;;;;5041064;28;20073;-73
2020/12/29 11:33:53;;;;;;;13.00;2.58;;;2.90;99.90;;;;;;5046912;28;20214;-73
2020/12/29 11:36:21;;;;;;;6.43;2.25;;;3.00;99.90;;;;;;5047094;28;20124;-72
2020/12/29 11:38:48;;;;;;;7.78;1.98;;;3.00;99.90;;;;;;5046932;28;20057;-73
2020/12/29 11:41:14;;;;;;;9.27;2.78;;;2.90;99.90;;;;;;5047213;28;20118;-73
2020/12/29 11:43:41;;;;;;;9.82;2.25;;;2.90;99.90;;;;;;5047335;28;20079;-72
2020/12/29 11:46:08;;;;;;;10.38;1.55;;;2.90;99.90;;;;;;5048097;28;20103;-72
2020/12/29 11:48:36;;;;;;;11.80;2.78;;;2.90;99.90;;;;;;5047305;28;20463;-72
2020/12/29 11:51:03;;;;;;;13.20;2.45;;;3.00;99.90;;;;;;5047379;28;20053;-72
2020/12/29 11:53:32;;;;;;;7.88;2.53;;;3.00;99.90;;;;;;5047578;28;20431;-72
2020/12/29 11:55:58;;;;;;;7.97;2.45;;;3.00;99.90;;;;;;5047728;28;20041;-72
2020/12/29 11:58:26;;;;;;;11.13;1.77;;;3.20;99.90;;;;;;5047468;28;20079;-72
2020/12/29 12:00:53;;;;;;;18.73;3.55;;;3.20;99.90;;;;;;5047348;28;20076;-72
2020/12/29 12:03:24;;;;;;;9.65;3.10;;;3.20;99.90;;;;;;5047773;28;20410;-72
2020/12/29 12:05:50;;;;;;;12.77;3.15;;;3.30;99.90;;;;;;5047924;28;20045;-72
2020/12/29 12:08:17;;;;;;;5.30;1.83;;;3.40;99.90;;;;;;5047283;28;20124;-73
2020/12/29 12:10:43;;;;;;;11.48;3.28;;;3.30;99.90;;;;;;5048243;28;20124;-72
2020/12/29 12:13:09;;;;;;;10.45;2.10;;;3.50;99.90;;;;;;5051696;28;20083;-71
2020/12/29 12:15:53;;;;;;;9.80;2.13;;;3.50;99.90;;;;;;5063720;28;20045;-72
2020/12/29 12:18:35;;;;;;;8.97;1.63;;;3.70;99.90;;;;;;5051521;28;20049;-73
2020/12/29 12:21:02;;;;;;;39.35;17.30;;;3.80;99.90;;;;;;5051237;28;20083;-72
2020/12/29 12:23:28;;;;;;;14.10;2.35;;;3.90;99.90;;;;;;5051168;28;20056;-72
2020/12/29 12:25:55;;;;;;;11.68;1.83;;;3.80;99.90;;;;;;5032876;28;20088;-71
2020/12/29 12:28:22;;;;;;;14.80;2.53;;;3.70;99.90;;;;;;5050647;28;20077;-73
2020/12/29 12:30:48;;;;;;;8.52;2.65;;;3.60;99.90;;;;;;5049633;28;20460;-72
2020/12/29 12:33:15;;;;;;;7.93;1.20;;;3.60;99.90;;;;;;5051147;28;20091;-72
2020/12/29 12:35:42;;;;;;;13.45;1.80;;;3.60;99.90;;;;;;5050906;28;20481;-72
2020/12/29 12:38:09;;;;;;;8.02;1.67;;;3.60;99.90;;;;;;5050828;28;20114;-72
2020/12/29 12:40:36;;;;;;;10.75;1.80;;;3.70;99.90;;;;;;5057328;28;20120;-73
2020/12/29 12:43:02;;;;;;;18.35;1.73;;;3.70;99.90;;;;;;5059775;28;20049;-72
2020/12/29 12:45:29;;;;;;;4.03;1.00;;;3.60;99.90;;;;;;5051023;28;20049;-72
2020/12/29 12:47:55;;;;;;;4.85;1.20;;;3.50;99.90;;;;;;5048312;28;20049;-72
2020/12/29 12:50:21;;;;;;;7.18;1.48;;;3.50;99.90;;;;;;5050529;28;20092;-71
2020/12/29 12:52:48;;;;;;;8.80;1.30;;;3.50;99.90;;;;;;5036573;28;20049;-71
2020/12/29 12:55:15;;;;;;;8.82;1.63;;;3.50;99.90;;;;;;5042937;28;20120;-73
2020/12/29 12:57:41;;;;;;;8.57;0.90;;;3.60;99.90;;;;;;5051197;28;20109;-73
2020/12/29 13:00:08;;;;;;;7.82;1.83;;;3.50;99.90;;;;;;5060114;28;20048;-72